Accord, Massachusetts
Current Conditions -  °F | °C
As of 11:54 AM on Saturday 25 Oct 2014 (Local Time) from KBOS Reporting Station
Few Clouds Few Clouds  
Wind Chill: 60°   Ceiling: Unl
Heat Index: 60°   Visibility: 10mi
Dew Point: 42°   Wind: 9mph
Humidity: 51%   Direction: 270°W
Pressure: 29.69"   Gusts: NA
Location:  42.17°N, 70.88°W
Report Text: KBOS 251554Z 27008KT 10SM FEW140 16/06 A2969 RMK AO2 SLP053 T01560056
Loading
Personal Weather Stations






























Interactive Weather Map
Tropical Storm Tracking
New forecast layout! Learn more

10-Day Weather Forecast

Advertisements
Track Severe Weather on mobile